Time;durP1;ratioP1;P1;durP2;ratioP2;P2;SDS_P1;SDS_P2;PMS_P1;PMS_P2;Temp;Humidity;BMP_temperature;BMP_pressure;BME280_temperature;BME280_humidity;BME280_pressure;Samples;Min_cycle;Max_cycle;Signal;HPM_P1;HPM_P2
2022/09/25 00:00:41;;;;;;;1999.90;999.90;;;11.60;99.90;;;;;;5118818;27;20059;-59
2022/09/25 00:03:08;;;;;;;1999.90;999.90;;;11.70;99.90;;;;;;5135989;27;20035;-60
2022/09/25 00:05:35;;;;;;;1999.90;999.90;;;11.70;99.90;;;;;;5125281;27;20097;-60
2022/09/25 00:08:02;;;;;;;1999.90;999.90;;;11.70;99.90;;;;;;5101401;28;20768;-59
2022/09/25 00:10:28;;;;;;;1999.90;999.90;;;11.60;99.90;;;;;;5121791;27;20832;-59
2022/09/25 00:12:54;;;;;;;1999.90;999.90;;;11.60;99.90;;;;;;5118483;27;20126;-60
2022/09/25 00:15:20;;;;;;;1999.90;999.90;;;11.60;99.90;;;;;;5137216;27;20473;-60
2022/09/25 00:17:46;;;;;;;1999.90;999.90;;;11.60;99.90;;;;;;5127642;27;20063;-60
2022/09/25 00:20:14;;;;;;;1999.90;999.90;;;11.60;99.90;;;;;;5120704;27;20082;-59
2022/09/25 00:22:41;;;;;;;1999.90;999.90;;;11.60;99.90;;;;;;5126898;27;20087;-60
2022/09/25 00:25:10;;;;;;;1999.90;999.90;;;11.60;99.90;;;;;;5126932;27;20072;-59
2022/09/25 00:27:36;;;;;;;1999.90;999.90;;;11.50;99.90;;;;;;5107199;27;20058;-60
2022/09/25 00:30:02;;;;;;;1999.90;999.90;;;11.50;99.90;;;;;;5105525;28;20493;-60
2022/09/25 00:32:28;;;;;;;1999.90;999.90;;;11.50;99.90;;;;;;5120463;27;20104;-59
2022/09/25 00:34:53;;;;;;;1999.90;999.90;;;11.50;99.90;;;;;;5125047;27;20086;-60
2022/09/25 00:37:19;;;;;;;1999.90;999.90;;;11.50;99.90;;;;;;5105744;28;20043;-60
2022/09/25 00:39:45;;;;;;;1999.90;999.90;;;11.40;99.90;;;;;;5122767;27;20048;-59
2022/09/25 00:42:12;;;;;;;1999.90;999.90;;;11.30;99.90;;;;;;5124435;27;20042;-59
2022/09/25 00:44:56;;;;;;;1999.90;999.90;;;11.30;99.90;;;;;;5105586;28;20051;-60
2022/09/25 00:47:27;;;;;;;1999.90;999.90;;;11.30;99.90;;;;;;5122397;27;20419;-59
2022/09/25 00:49:55;;;;;;;1999.90;999.90;;;11.30;99.90;;;;;;5120725;27;20058;-59
2022/09/25 00:52:22;;;;;;;1999.90;999.90;;;11.30;99.90;;;;;;5127146;27;20397;-60
2022/09/25 00:54:54;;;;;;;1999.90;999.90;;;11.40;99.90;;;;;;5123277;27;20058;-59
2022/09/25 00:57:25;;;;;;;1999.90;999.90;;;11.40;99.90;;;;;;5105587;28;20044;-59
2022/09/25 00:59:54;;;;;;;1999.90;999.90;;;11.40;99.90;;;;;;5126392;27;20058;-59
2022/09/25 01:02:29;;;;;;;1999.90;999.90;;;11.50;99.90;;;;;;5120801;27;20044;-59
2022/09/25 01:05:01;;;;;;;1999.90;999.90;;;11.50;99.90;;;;;;5123684;27;20051;-59
2022/09/25 01:07:28;;;;;;;1999.90;999.90;;;11.60;99.90;;;;;;5118654;27;20039;-59
2022/09/25 01:09:58;;;;;;;1999.90;999.90;;;11.60;99.90;;;;;;5125293;27;20061;-59
2022/09/25 01:12:24;;;;;;;1999.90;999.90;;;11.50;99.90;;;;;;5123434;27;20043;-59
2022/09/25 01:14:50;;;;;;;1999.90;999.90;;;11.50;99.90;;;;;;5096334;28;20044;-60
2022/09/25 01:17:25;;;;;;;1999.90;999.90;;;11.60;99.90;;;;;;5115110;28;20047;-60
2022/09/25 01:20:15;;;;;;;1999.90;999.90;;;11.50;99.90;;;;;;5122365;27;20047;-60
2022/09/25 01:23:15;;;;;;;1999.90;999.90;;;11.50;99.90;;;;;;5116405;27;20035;-59
2022/09/25 01:26:09;;;;;;;1999.90;999.90;;;11.60;99.90;;;;;;5115062;27;20130;-60
2022/09/25 01:28:41;;;;;;;1999.90;999.90;;;11.70;99.90;;;;;;5113202;28;20056;-59
2022/09/25 01:31:16;;;;;;;1999.90;999.90;;;11.70;99.90;;;;;;5113707;28;20086;-59
2022/09/25 01:33:47;;;;;;;1999.90;999.90;;;11.70;99.90;;;;;;5116352;27;20054;-59
2022/09/25 01:36:16;;;;;;;1999.90;999.90;;;11.70;99.90;;;;;;5116171;27;20051;-59
2022/09/25 01:38:46;;;;;;;1999.90;999.90;;;11.70;99.90;;;;;;5135671;27;20062;-60
2022/09/25 01:41:13;;;;;;;1999.90;999.90;;;11.70;99.90;;;;;;5132018;27;20039;-59
2022/09/25 01:43:46;;;;;;;1999.90;999.90;;;11.80;99.90;;;;;;5114046;28;20382;-59
2022/09/25 01:46:17;;;;;;;;;;;11.90;99.90;;;;;;5114891;28;20054;-60
2022/09/25 01:48:48;;;;;;;1999.90;999.90;;;11.90;99.90;;;;;;5123236;27;19919;-59
2022/09/25 01:51:20;;;;;;;1999.90;999.90;;;11.80;99.90;;;;;;5115419;27;20396;-60
2022/09/25 01:53:51;;;;;;;1999.90;999.90;;;11.70;99.90;;;;;;5135362;27;20130;-59
2022/09/25 01:56:28;;;;;;;1999.90;999.90;;;11.60;99.90;;;;;;5134563;27;20039;-59
2022/09/25 01:59:02;;;;;;;1999.90;999.90;;;11.60;99.90;;;;;;5132493;27;20075;-60
2022/09/25 02:01:32;;;;;;;1999.90;999.90;;;11.50;99.90;;;;;;5114547;28;20408;-60
2022/09/25 02:04:06;;;;;;;1999.90;999.90;;;11.50;99.90;;;;;;5113508;28;20047;-60
2022/09/25 02:06:34;;;;;;;1999.90;999.90;;;11.50;99.90;;;;;;5112962;28;20046;-60
2022/09/25 02:09:08;;;;;;;1999.90;999.90;;;11.40;99.90;;;;;;5114661;27;20040;-60
2022/09/25 02:11:40;;;;;;;1999.90;999.90;;;11.40;99.90;;;;;;5107682;28;20043;-59
2022/09/25 02:14:14;;;;;;;1999.90;999.90;;;11.30;99.90;;;;;;5103954;28;20056;-60
2022/09/25 02:16:42;;;;;;;1999.90;999.90;;;11.20;99.90;;;;;;5125012;27;20231;-60
2022/09/25 02:22:16;;;;;;;1999.90;999.90;;;11.20;99.90;;;;;;5134456;27;20035;-60
2022/09/25 02:24:47;;;;;;;1999.90;999.90;;;11.20;99.90;;;;;;5134369;27;20078;-59
2022/09/25 02:27:14;;;;;;;1999.90;999.90;;;11.20;99.90;;;;;;5115542;27;20050;-60
2022/09/25 02:29:41;;;;;;;1999.90;999.90;;;11.20;99.90;;;;;;5134625;27;20039;-60
2022/09/25 02:32:08;;;;;;;1999.90;999.90;;;11.20;99.90;;;;;;5108728;28;20108;-60
2022/09/25 02:34:34;;;;;;;1999.90;999.90;;;11.10;99.90;;;;;;5117453;27;20039;-60
2022/09/25 02:37:00;;;;;;;1999.90;999.90;;;11.00;99.90;;;;;;5134412;27;20116;-59
2022/09/25 02:39:29;;;;;;;1999.90;999.90;;;11.00;99.90;;;;;;5124577;27;20118;-59
2022/09/25 02:42:14;;;;;;;1999.90;999.90;;;11.00;99.90;;;;;;5103110;27;20071;-59
2022/09/25 02:44:50;;;;;;;1999.90;999.90;;;11.00;99.90;;;;;;5120861;27;20052;-59
2022/09/25 02:47:43;;;;;;;1999.90;999.90;;;10.90;99.90;;;;;;5120976;27;20402;-59
2022/09/25 02:50:13;;;;;;;1999.90;999.90;;;10.90;99.90;;;;;;5119001;27;20104;-60
2022/09/25 02:52:49;;;;;;;1999.90;999.90;;;10.80;99.90;;;;;;5113609;28;20090;-60
2022/09/25 02:55:25;;;;;;;1999.90;999.90;;;10.80;99.90;;;;;;5112450;28;20047;-60
2022/09/25 02:57:55;;;;;;;1999.90;999.90;;;10.80;99.90;;;;;;5128852;27;20078;-59
2022/09/25 03:00:22;;;;;;;1999.90;999.90;;;10.70;99.90;;;;;;5133395;27;20059;-59
2022/09/25 03:02:54;;;;;;;1999.90;999.90;;;10.70;99.90;;;;;;5114825;28;20473;-60
2022/09/25 03:05:20;;;;;;;1999.90;999.90;;;10.60;99.90;;;;;;5113781;28;20044;-59
2022/09/25 03:10:33;;;;;;;1999.90;999.90;;;10.40;99.90;;;;;;5113326;28;20044;-60
2022/09/25 03:13:18;;;;;;;1999.90;999.90;;;10.50;99.90;;;;;;5111916;28;20108;-59
2022/09/25 03:15:47;;;;;;;1999.90;999.90;;;10.50;99.90;;;;;;5111195;28;20079;-59
2022/09/25 03:18:13;;;;;;;1999.90;999.90;;;10.40;99.90;;;;;;5112517;28;20043;-60
2022/09/25 03:20:40;;;;;;;1999.90;999.90;;;10.30;99.90;;;;;;5127698;28;20047;-59
2022/09/25 03:23:06;;;;;;;1999.90;999.90;;;10.40;99.90;;;;;;5133067;28;20524;-60
2022/09/25 03:25:32;;;;;;;1999.90;999.90;;;10.40;99.90;;;;;;5133306;28;20050;-59
2022/09/25 03:27:58;;;;;;;1999.90;999.90;;;10.30;99.90;;;;;;5126688;28;20054;-59
2022/09/25 03:30:24;;;;;;;1999.90;999.90;;;10.30;99.90;;;;;;5112586;28;20052;-60
2022/09/25 03:32:50;;;;;;;1999.90;999.90;;;10.30;99.90;;;;;;5124768;28;20043;-60
2022/09/25 03:35:15;;;;;;;1999.90;999.90;;;10.30;99.90;;;;;;5133044;28;20059;-59
2022/09/25 03:37:41;;;;;;;1999.90;999.90;;;10.30;99.90;;;;;;5133153;28;20043;-59
2022/09/25 03:40:07;;;;;;;1999.90;999.90;;;10.30;99.90;;;;;;5133428;28;20055;-60
2022/09/25 03:42:34;;;;;;;1999.90;999.90;;;10.30;99.90;;;;;;5132932;28;20081;-59
2022/09/25 03:45:00;;;;;;;1999.90;999.90;;;10.40;99.90;;;;;;5131756;28;20058;-59
2022/09/25 03:47:26;;;;;;;1999.90;999.90;;;10.30;99.90;;;;;;5111351;28;20043;-60
2022/09/25 03:49:52;;;;;;;1999.90;999.90;;;10.30;99.90;;;;;;5112175;28;20058;-59
2022/09/25 03:52:18;;;;;;;1999.90;999.90;;;10.30;99.90;;;;;;5113015;28;20040;-59
2022/09/25 03:54:43;;;;;;;1999.90;999.90;;;10.40;99.90;;;;;;5112470;28;20043;-59
2022/09/25 03:57:11;;;;;;;1999.90;999.90;;;10.30;99.90;;;;;;5121628;28;20040;-59
2022/09/25 03:59:37;;;;;;;1999.90;999.90;;;10.30;99.90;;;;;;5114859;28;20055;-59
2022/09/25 04:02:02;;;;;;;1999.90;999.90;;;10.20;99.90;;;;;;5133014;28;20039;-59
2022/09/25 04:04:28;;;;;;;1999.90;999.90;;;10.20;99.90;;;;;;5117785;28;20048;-59
2022/09/25 04:06:55;;;;;;;1999.90;999.90;;;10.30;99.90;;;;;;5116810;28;20047;-59
2022/09/25 04:09:20;;;;;;;1999.90;999.90;;;10.20;99.90;;;;;;5114972;28;20087;-59
2022/09/25 04:11:46;;;;;;;1999.90;999.90;;;10.20;99.90;;;;;;5116151;28;20075;-59
2022/09/25 04:14:13;;;;;;;1999.90;999.90;;;10.20;99.90;;;;;;5116519;28;20047;-59
2022/09/25 04:16:39;;;;;;;1999.90;999.90;;;10.10;99.90;;;;;;5116065;28;20071;-59
2022/09/25 04:19:05;;;;;;;1999.90;999.90;;;10.00;99.90;;;;;;5115065;27;20048;-59
2022/09/25 04:21:32;;;;;;;1999.90;999.90;;;9.90;99.90;;;;;;5118099;27;20062;-59
2022/09/25 04:26:42;;;;;;;1999.90;999.90;;;9.90;99.90;;;;;;5136667;27;20043;-59
2022/09/25 04:29:08;;;;;;;1999.90;999.90;;;9.90;99.90;;;;;;5136104;27;20054;-59
2022/09/25 04:31:33;;;;;;;1999.90;999.90;;;9.70;99.90;;;;;;5116711;27;20405;-59
2022/09/25 04:34:01;;;;;;;1999.90;999.90;;;9.50;99.90;;;;;;5136918;27;20035;-59
2022/09/25 04:36:27;;;;;;;1999.90;999.90;;;9.40;99.90;;;;;;5136868;27;20050;-59
2022/09/25 04:38:52;;;;;;;1999.90;999.90;;;9.30;99.90;;;;;;5127351;27;20043;-59
2022/09/25 04:41:18;;;;;;;1999.90;999.90;;;9.20;99.90;;;;;;5115953;28;20039;-59
2022/09/25 04:43:44;;;;;;;1999.90;999.90;;;9.20;99.90;;;;;;5118538;27;20051;-59
2022/09/25 04:46:12;;;;;;;1999.90;999.90;;;9.10;99.90;;;;;;5135564;27;20055;-59
2022/09/25 04:48:38;;;;;;;1999.90;999.90;;;9.20;99.90;;;;;;5114368;28;20397;-59
2022/09/25 04:51:04;;;;;;;1999.90;999.90;;;9.20;99.90;;;;;;5115866;28;20054;-59
2022/09/25 04:53:34;;;;;;;1999.90;999.90;;;9.10;99.90;;;;;;5114906;28;20040;-59
2022/09/25 04:56:06;;;;;;;1999.90;999.90;;;9.20;99.90;;;;;;5115687;27;20059;-59
2022/09/25 04:58:32;;;;;;;1999.90;999.90;;;9.20;99.90;;;;;;5113959;28;20451;-59
2022/09/25 05:01:05;;;;;;;1999.90;999.90;;;9.20;99.90;;;;;;5114699;28;20397;-59
2022/09/25 05:03:30;;;;;;;1999.90;999.90;;;9.20;99.90;;;;;;5115444;28;20051;-59
2022/09/25 05:05:56;;;;;;;1999.90;999.90;;;9.20;99.90;;;;;;5124503;27;20555;-59
2022/09/25 05:08:22;;;;;;;1999.90;999.90;;;9.10;99.90;;;;;;5123355;27;20063;-59
2022/09/25 05:10:47;;;;;;;1999.90;999.90;;;9.10;99.90;;;;;;5125669;27;20497;-59
2022/09/25 05:13:13;;;;;;;1999.90;999.90;;;9.10;99.90;;;;;;5125327;27;20036;-59
2022/09/25 05:15:39;;;;;;;1999.90;999.90;;;9.10;99.90;;;;;;5124878;27;20047;-59
2022/09/25 05:18:10;;;;;;;1999.90;999.90;;;9.10;99.90;;;;;;5123842;27;20058;-59
2022/09/25 05:20:36;;;;;;;1999.90;999.90;;;9.20;99.90;;;;;;5123151;27;20054;-59
2022/09/25 05:23:03;;;;;;;1999.90;999.90;;;9.20;99.90;;;;;;5123642;27;20047;-59
2022/09/25 05:25:30;;;;;;;1999.90;999.90;;;9.20;99.90;;;;;;5126022;27;20427;-59
2022/09/25 05:27:58;;;;;;;1999.90;999.90;;;9.20;99.90;;;;;;5103929;28;20147;-59
2022/09/25 05:30:26;;;;;;;1999.90;999.90;;;9.10;99.90;;;;;;5114847;28;20044;-59
2022/09/25 05:32:52;;;;;;;1999.90;999.90;;;9.10;99.90;;;;;;5127268;27;20046;-59
2022/09/25 05:35:22;;;;;;;1999.90;999.90;;;9.00;99.90;;;;;;5134918;27;20389;-59
2022/09/25 05:37:49;;;;;;;1999.90;999.90;;;8.90;99.90;;;;;;5135202;27;20051;-59
2022/09/25 05:40:16;;;;;;;1999.90;999.90;;;9.00;99.90;;;;;;5126872;27;20040;-59
2022/09/25 05:42:43;;;;;;;1999.90;999.90;;;8.90;99.90;;;;;;5105558;27;20126;-59
2022/09/25 05:45:11;;;;;;;1999.90;999.90;;;8.80;99.90;;;;;;5125484;27;20175;-59
2022/09/25 05:47:38;;;;;;;1999.90;999.90;;;8.80;99.90;;;;;;5133164;27;20054;-59
2022/09/25 05:50:04;;;;;;;1999.90;999.90;;;8.80;99.90;;;;;;5122824;27;20608;-59
2022/09/25 05:52:30;;;;;;;1999.90;999.90;;;8.80;99.90;;;;;;5114504;28;20143;-59
2022/09/25 05:54:56;;;;;;;1999.90;999.90;;;8.80;99.90;;;;;;5117401;27;20034;-59
2022/09/25 05:57:22;;;;;;;1999.90;999.90;;;8.90;99.90;;;;;;5122058;27;20047;-59
2022/09/25 05:59:48;;;;;;;1999.90;999.90;;;8.90;99.90;;;;;;5101555;28;20048;-59
2022/09/25 06:02:15;;;;;;;1999.90;999.90;;;9.00;99.90;;;;;;5114556;28;20051;-59
2022/09/25 06:04:41;;;;;;;1999.90;999.90;;;9.00;99.90;;;;;;5095394;28;20131;-59
2022/09/25 06:07:13;;;;;;;1999.90;999.90;;;9.10;99.90;;;;;;5113885;28;20059;-59
2022/09/25 06:09:39;;;;;;;1999.90;999.90;;;9.10;99.90;;;;;;5114353;28;20085;-59
2022/09/25 06:12:06;;;;;;;1999.90;999.90;;;9.10;99.90;;;;;;5113624;28;20036;-59
2022/09/25 06:14:34;;;;;;;1999.90;999.90;;;9.20;99.90;;;;;;5113958;28;20083;-59
2022/09/25 06:17:00;;;;;;;1999.90;999.90;;;9.30;99.90;;;;;;5113540;27;20063;-58
2022/09/25 06:19:28;;;;;;;1999.90;999.90;;;9.50;99.90;;;;;;5116740;27;20039;-59
2022/09/25 06:21:56;;;;;;;1999.90;999.90;;;9.60;99.90;;;;;;5122080;27;20122;-59
2022/09/25 06:24:23;;;;;;;1999.90;999.90;;;9.70;99.90;;;;;;5123166;27;20504;-59
2022/09/25 06:26:49;;;;;;;1999.90;999.90;;;9.80;99.90;;;;;;5098533;28;20520;-59
2022/09/25 06:29:14;;;;;;;1999.90;999.90;;;9.90;99.90;;;;;;5124100;27;20039;-59
2022/09/25 06:31:40;;;;;;;1999.90;999.90;;;10.00;99.90;;;;;;5121829;27;20042;-58
2022/09/25 06:34:08;;;;;;;1999.90;999.90;;;10.20;99.90;;;;;;5130355;27;20524;-59
2022/09/25 06:36:35;;;;;;;1999.90;999.90;;;10.40;99.90;;;;;;5134195;27;20046;-59
2022/09/25 06:39:01;;;;;;;1999.90;999.90;;;10.50;99.90;;;;;;5133677;27;20139;-59
2022/09/25 06:41:26;;;;;;;1999.90;999.90;;;10.50;99.90;;;;;;5134025;27;20031;-59
2022/09/25 06:43:53;;;;;;;1999.90;999.90;;;10.60;99.90;;;;;;5116468;27;20044;-59
2022/09/25 06:46:19;;;;;;;1999.90;999.90;;;10.70;99.90;;;;;;5121362;27;20568;-59
2022/09/25 06:48:56;;;;;;;1999.90;999.90;;;10.70;99.90;;;;;;5103820;28;20142;-59
2022/09/25 06:51:23;;;;;;;1999.90;999.90;;;10.70;99.90;;;;;;5122026;27;20503;-59
2022/09/25 06:53:55;;;;;;;1999.90;999.90;;;10.60;99.90;;;;;;5123139;27;20110;-59
2022/09/25 06:56:21;;;;;;;1999.90;999.90;;;10.60;99.90;;;;;;5122997;27;20533;-59
2022/09/25 06:58:47;;;;;;;1999.90;999.90;;;10.70;99.90;;;;;;5133786;27;20130;-59
2022/09/25 07:01:13;;;;;;;1999.90;999.90;;;10.80;99.90;;;;;;5118253;27;20048;-59
2022/09/25 07:03:46;;;;;;;1999.90;999.90;;;10.90;99.90;;;;;;5113561;28;20051;-59
2022/09/25 07:06:33;;;;;;;1999.90;999.90;;;11.00;99.90;;;;;;5112313;28;20059;-59
2022/09/25 07:09:00;;;;;;;1999.90;999.90;;;11.20;99.90;;;;;;5118283;27;20561;-59
2022/09/25 07:11:27;;;;;;;1999.90;999.90;;;11.30;99.90;;;;;;5133957;27;20047;-59
2022/09/25 07:13:54;;;;;;;1999.90;999.90;;;11.50;99.90;;;;;;5114553;27;20130;-59
2022/09/25 07:16:22;;;;;;;1999.90;999.90;;;11.60;99.90;;;;;;5133756;27;20114;-59
2022/09/25 07:18:48;;;;;;;1999.90;999.90;;;11.80;99.90;;;;;;5124657;28;20043;-59
2022/09/25 07:21:17;;;;;;;1999.90;999.90;;;11.90;99.90;;;;;;5101256;28;20036;-59
2022/09/25 07:23:47;;;;;;;1999.90;999.90;;;12.00;99.90;;;;;;5124218;28;20058;-59
2022/09/25 07:26:16;;;;;;;1999.90;999.90;;;12.10;99.90;;;;;;5121539;28;19977;-59
2022/09/25 07:28:42;;;;;;;1999.90;999.90;;;12.20;99.90;;;;;;5122068;28;20537;-59
2022/09/25 07:31:17;;;;;;;1999.90;999.90;;;12.30;99.90;;;;;;5123857;28;20089;-59
2022/09/25 07:33:44;;;;;;;1999.90;999.90;;;12.40;99.90;;;;;;5121120;28;20035;-58
2022/09/25 07:36:10;;;;;;;1999.90;999.90;;;12.50;99.90;;;;;;5121081;28;20048;-59
2022/09/25 07:38:37;;;;;;;1999.90;999.90;;;12.70;99.90;;;;;;5113103;28;20039;-59
2022/09/25 07:41:05;;;;;;;1999.90;999.90;;;12.80;99.90;;;;;;5129832;27;20251;-59
2022/09/25 07:43:32;;;;;;;1999.90;999.90;;;12.90;99.90;;;;;;5122150;27;20039;-59
2022/09/25 07:45:59;;;;;;;1999.90;999.90;;;13.00;99.90;;;;;;5128402;27;20443;-59
2022/09/25 07:48:25;;;;;;;1999.90;999.90;;;13.20;99.90;;;;;;5125135;27;20039;-59
2022/09/25 07:50:54;;;;;;;1999.90;999.90;;;13.30;99.90;;;;;;5127356;27;20049;-60
2022/09/25 07:53:20;;;;;;;1999.90;999.90;;;13.40;99.90;;;;;;5105110;28;20039;-59
2022/09/25 07:55:46;;;;;;;1999.90;999.90;;;13.50;99.90;;;;;;5126270;27;20051;-59
2022/09/25 07:58:13;;;;;;;1999.90;999.90;;;13.70;99.90;;;;;;5125057;27;20039;-59
2022/09/25 08:00:39;;;;;;;1999.90;999.90;;;13.70;99.90;;;;;;5107369;27;20039;-59
2022/09/25 08:03:07;;;;;;;1999.90;999.90;;;13.70;99.90;;;;;;5102882;27;20570;-59
2022/09/25 08:05:33;;;;;;;1999.90;999.90;;;13.70;99.90;;;;;;5123753;27;20046;-59
2022/09/25 08:07:59;;;;;;;1999.90;999.90;;;13.60;99.90;;;;;;5108313;27;20111;-59
2022/09/25 08:10:25;;;;;;;1999.90;999.90;;;13.70;99.90;;;;;;5125493;27;20118;-59
2022/09/25 08:12:51;;;;;;;1999.90;999.90;;;13.90;99.90;;;;;;5122779;27;20115;-59
2022/09/25 08:15:16;;;;;;;1999.90;999.90;;;14.10;99.90;;;;;;5089195;28;20055;-60
2022/09/25 08:17:42;;;;;;;1999.90;999.90;;;14.20;99.90;;;;;;5124907;27;20105;-60
2022/09/25 08:20:09;;;;;;;1999.90;999.90;;;14.30;99.90;;;;;;5126478;27;20039;-60
2022/09/25 08:22:35;;;;;;;1999.90;999.90;;;14.40;99.90;;;;;;5125270;27;20040;-59
2022/09/25 08:25:01;;;;;;;1999.90;999.90;;;14.60;99.90;;;;;;5126795;27;20118;-60
2022/09/25 08:27:28;;;;;;;1999.90;999.90;;;14.80;99.90;;;;;;5124996;27;20036;-60
2022/09/25 08:29:54;;;;;;;1999.90;999.90;;;15.00;99.90;;;;;;5122601;27;20035;-59
2022/09/25 08:32:20;;;;;;;1999.90;999.90;;;15.10;99.90;;;;;;5121109;27;20389;-59
2022/09/25 08:34:46;;;;;;;1999.90;999.90;;;15.10;99.90;;;;;;5125393;27;20050;-60
2022/09/25 08:37:12;;;;;;;1999.90;999.90;;;15.10;99.90;;;;;;5107036;27;20043;-60
2022/09/25 08:39:38;;;;;;;1999.90;999.90;;;15.00;99.90;;;;;;5136012;27;20122;-60
2022/09/25 08:42:04;;;;;;;1999.90;999.90;;;15.10;99.90;;;;;;5136372;27;20035;-59
2022/09/25 08:44:46;;;;;;;1999.90;999.90;;;14.90;99.90;;;;;;5135403;27;20079;-60
2022/09/25 08:50:18;;;;;;;1999.90;999.90;;;14.70;99.90;;;;;;5113536;28;20058;-60
2022/09/25 08:52:49;;;;;;;1999.90;999.90;;;14.90;99.90;;;;;;5115037;28;20075;-60
2022/09/25 08:56:13;;;;;;;1999.90;999.90;;;15.10;99.90;;;;;;5121805;27;20043;-60
2022/09/25 08:58:23;;;;;;;1999.90;999.90;;;15.20;99.90;;;;;;5135615;27;20100;-60
2022/09/25 09:00:53;;;;;;;1999.90;999.90;;;15.30;99.90;;;;;;5135397;27;20040;-60
2022/09/25 09:03:23;;;;;;;1999.90;999.90;;;15.40;99.90;;;;;;5117453;27;20473;-60
2022/09/25 09:05:55;;;;;;;1999.90;999.90;;;15.40;99.90;;;;;;5113087;28;20060;-60
2022/09/25 09:08:24;;;;;;;1999.90;999.90;;;15.50;99.90;;;;;;5115601;28;20044;-60
2022/09/25 09:10:57;;;;;;;1999.90;999.90;;;15.60;99.90;;;;;;5115299;28;20051;-60
2022/09/25 09:13:29;;;;;;;1999.90;999.90;;;15.80;99.90;;;;;;5114740;27;20048;-60
2022/09/25 09:16:05;;;;;;;1999.90;999.90;;;15.90;99.90;;;;;;5115283;28;20059;-59
2022/09/25 09:18:36;;;;;;;1999.90;999.90;;;15.80;99.90;;;;;;5115010;28;20115;-60
2022/09/25 09:21:13;;;;;;;1999.90;999.90;;;15.90;99.90;;;;;;5131426;27;20043;-59
2022/09/25 09:24:05;;;;;;;1999.90;999.90;;;15.90;99.90;;;;;;5115214;28;20073;-60
2022/09/25 09:26:39;;;;;;;1999.90;999.90;;;15.70;99.90;;;;;;5115134;28;20051;-60
2022/09/25 09:29:23;;;;;;;1999.90;999.90;;;15.50;99.90;;;;;;5114007;28;20206;-59
2022/09/25 09:32:22;;;;;;;1999.90;999.90;;;15.40;99.90;;;;;;5113124;27;20043;-60
2022/09/25 09:35:06;;;;;;;1999.90;999.90;;;15.40;99.90;;;;;;5134285;27;20059;-60
2022/09/25 09:37:44;;;;;;;1999.90;999.90;;;15.60;99.90;;;;;;5135339;27;20508;-60
2022/09/25 09:40:39;;;;;;;1999.90;999.90;;;15.90;99.90;;;;;;5123368;27;20090;-59
2022/09/25 09:43:21;;;;;;;1999.90;999.90;;;16.10;99.90;;;;;;5112695;28;20489;-60
2022/09/25 09:45:57;;;;;;;1999.90;999.90;;;16.20;99.90;;;;;;5114977;28;20393;-60
2022/09/25 09:48:36;;;;;;;1999.90;999.90;;;16.30;99.90;;;;;;5120974;27;20049;-59
2022/09/25 09:51:11;;;;;;;1999.90;999.90;;;16.40;99.90;;;;;;5116650;27;20096;-59
2022/09/25 09:53:43;;;;;;;1999.90;999.90;;;16.40;99.90;;;;;;5135113;27;20043;-60
2022/09/25 09:56:15;;;;;;;1999.90;999.90;;;16.50;99.90;;;;;;5134173;27;20560;-60
2022/09/25 09:58:53;;;;;;;1999.90;999.90;;;16.60;99.90;;;;;;5115978;27;20044;-60
2022/09/25 10:01:22;;;;;;;1999.90;999.90;;;16.70;99.90;;;;;;5112492;28;20533;-60
2022/09/25 10:04:02;;;;;;;1999.90;999.90;;;17.10;99.90;;;;;;5113232;28;20109;-59
2022/09/25 10:06:34;;;;;;;1999.90;999.90;;;17.70;99.90;;;;;;5130319;27;20066;-60
2022/09/25 10:09:00;;;;;;;1999.90;999.90;;;18.30;99.50;;;;;;5134361;27;20043;-60
2022/09/25 10:11:31;;;;;;;1999.90;999.90;;;18.60;99.10;;;;;;5116039;27;20442;-60
2022/09/25 10:14:00;;;;;;;1999.90;999.90;;;18.90;97.10;;;;;;5134614;27;20471;-59
2022/09/25 10:16:27;;;;;;;1999.90;999.90;;;18.90;98.10;;;;;;5113886;27;20039;-60
2022/09/25 10:19:05;;;;;;;1999.90;999.90;;;19.10;98.80;;;;;;5113902;28;20043;-60
2022/09/25 10:21:39;;;;;;;1999.90;999.90;;;19.20;98.80;;;;;;5114187;28;20444;-60
2022/09/25 10:24:05;;;;;;;1999.90;999.90;;;19.20;99.60;;;;;;5113652;27;20048;-59
2022/09/25 10:26:36;;;;;;;1999.90;999.90;;;18.90;98.00;;;;;;5113872;28;20044;-60
2022/09/25 10:29:24;;;;;;;1999.90;999.90;;;18.30;99.00;;;;;;5112873;28;20096;-60
2022/09/25 10:31:59;;;;;;;1999.90;999.90;;;18.20;99.90;;;;;;5111745;27;20059;-60
2022/09/25 10:34:28;;;;;;;1999.90;999.90;;;19.60;98.80;;;;;;5113579;28;20083;-60
2022/09/25 10:36:54;;;;;;;1999.90;999.90;;;20.90;96.50;;;;;;5129842;27;20118;-60
2022/09/25 10:39:24;;;;;;;1999.90;999.90;;;21.40;94.20;;;;;;5123969;27;20099;-60
2022/09/25 10:41:50;;;;;;;1999.90;999.90;;;21.20;93.80;;;;;;5123162;27;20050;-60
2022/09/25 10:44:21;;;;;;;1999.90;999.90;;;21.50;93.90;;;;;;5102832;28;20540;-60
2022/09/25 10:52:43;;;;;;;1999.90;999.90;;;23.20;89.10;;;;;;5119842;27;20046;-60
2022/09/25 10:55:26;;;;;;;1999.90;999.90;;;21.80;90.00;;;;;;5118613;27;20482;-60
2022/09/25 10:58:01;;;;;;;1999.90;999.90;;;19.90;92.40;;;;;;5122713;27;20374;-60
2022/09/25 11:00:28;;;;;;;1999.90;999.90;;;18.90;95.20;;;;;;5115168;27;20094;-60
2022/09/25 11:02:59;;;;;;;1999.90;999.90;;;18.40;95.50;;;;;;5113257;28;20044;-60
2022/09/25 11:05:29;;;;;;;1999.90;999.90;;;17.80;95.90;;;;;;5111254;28;20100;-60
2022/09/25 11:07:58;;;;;;;1999.90;999.90;;;17.20;97.90;;;;;;5113676;28;20119;-60
2022/09/25 11:10:30;;;;;;;1999.90;999.90;;;16.70;98.90;;;;;;5123015;27;20118;-60
2022/09/25 11:12:56;;;;;;;1999.90;999.90;;;16.40;99.90;;;;;;5118573;27;20059;-60
2022/09/25 11:15:26;;;;;;;1999.90;999.90;;;16.30;99.90;;;;;;5123161;27;20054;-60
2022/09/25 11:17:54;;;;;;;1999.90;999.90;;;16.20;99.90;;;;;;5103437;28;20039;-60
2022/09/25 11:20:28;;;;;;;1999.90;999.90;;;16.20;99.90;;;;;;5126861;28;20051;-60
2022/09/25 11:23:07;;;;;;;1999.90;999.90;;;16.20;99.90;;;;;;5133518;28;20393;-60
2022/09/25 11:25:51;;;;;;;1999.90;999.90;;;16.40;99.90;;;;;;5110979;28;20055;-60
2022/09/25 11:28:37;;;;;;;1999.90;999.90;;;16.90;99.90;;;;;;5118082;28;20351;-60
2022/09/25 11:31:15;;;;;;;1999.90;999.90;;;18.30;99.90;;;;;;5101536;28;20054;-60
2022/09/25 11:34:09;;;;;;;1999.90;999.90;;;19.00;98.60;;;;;;5115275;28;20048;-60
2022/09/25 11:36:44;;;;;;;1999.90;999.90;;;18.90;96.70;;;;;;5112977;28;20475;-60
2022/09/25 11:42:13;;;;;;;1999.90;999.90;;;18.20;96.90;;;;;;5111998;28;20592;-60
2022/09/25 11:44:46;;;;;;;1999.90;999.90;;;17.80;97.60;;;;;;5119161;28;20476;-60
2022/09/25 11:47:16;;;;;;;1999.90;999.90;;;17.50;98.10;;;;;;5133559;28;20047;-60
2022/09/25 11:49:46;;;;;;;1999.90;999.90;;;17.60;99.30;;;;;;5132801;28;20039;-59
2022/09/25 11:52:21;;;;;;;1999.90;999.90;;;18.50;97.40;;;;;;5123605;28;20134;-60
2022/09/25 11:55:06;;;;;;;1999.90;999.90;;;20.00;95.40;;;;;;5120795;28;20518;-60
2022/09/25 11:58:04;;;;;;;1999.90;999.90;;;20.60;93.50;;;;;;5125479;28;20118;-60
2022/09/25 12:00:43;;;;;;;1999.90;999.90;;;19.80;95.00;;;;;;5113207;28;20050;-60
2022/09/25 12:03:13;;;;;;;1999.90;999.90;;;18.80;95.60;;;;;;5118272;28;20042;-60
2022/09/25 12:05:41;;;;;;;1999.90;999.90;;;18.30;96.90;;;;;;5102644;28;20055;-59
2022/09/25 12:08:08;;;;;;;1999.90;999.90;;;18.40;97.10;;;;;;5123307;28;20388;-60
2022/09/25 12:10:49;;;;;;;1999.90;999.90;;;18.70;97.40;;;;;;5120736;28;20043;-60
2022/09/25 12:13:26;;;;;;;1999.90;999.90;;;19.00;97.30;;;;;;5116163;28;20054;-60
2022/09/25 12:16:11;;;;;;;1999.90;999.90;;;19.60;94.70;;;;;;5112769;28;20094;-59
2022/09/25 12:18:43;;;;;;;1999.90;999.90;;;19.30;95.30;;;;;;5126715;28;20054;-60
2022/09/25 12:21:16;;;;;;;1999.90;999.90;;;18.20;96.10;;;;;;5129464;28;20051;-60
2022/09/25 12:23:42;;;;;;;;;;;17.30;99.00;;;;;;5112606;28;20043;-60
2022/09/25 12:26:20;;;;;;;1999.90;999.90;;;16.70;99.90;;;;;;5095739;28;19919;-59
2022/09/25 12:29:05;;;;;;;1999.90;999.90;;;16.30;99.90;;;;;;5116273;28;20069;-59
2022/09/25 12:32:10;;;;;;;1999.90;999.90;;;16.00;99.90;;;;;;5116427;27;20142;-60
2022/09/25 12:34:52;;;;;;;1999.90;999.90;;;15.80;99.90;;;;;;5136578;27;20043;-60
2022/09/25 12:37:42;;;;;;;1999.90;999.90;;;15.60;99.90;;;;;;5114117;27;20071;-60